KSEA

Seattle-Tacoma

Airport
ICAO code
KSEA
Summary
ICAO Region
NAM
ICAO Territory
Location

SeaTac, Washington,

Coordinates
47° 26' 55" N , 122° 18' 36" W
KCC
Csb
Airport BS
Bird Strike
Airport LOS
Parallel Runway Operation
Metar
Observation
KSEA 092353Z 00000KT 10SM FEW040 FEW160 SCT250 24/15 A2991 RMK AO2 SLP134 T02390150 10244 20167 56010
Station
Seattle, Seattle-Tacoma International Airport
Date/Time
2022-08-09 23:53:00
Wind direction
Wind speed
00 kts
Lowest cloud amount
few clouds
Temperature
23.9°C
Dew point
15°C
Humidity
57%
Weather condition
n/a

Description

Seattle-Tacoma International Airport, also known as "Sea-Tac Airport" or Sea-Tac, is located in SeaTac, Washington, United States at the intersections of State Route 518, State Route 99 and State Route 509, about 1.5 miles west of Interstate 5. It serves Seattle and Tacoma, Washington as well as the rest of western Washington. The airport is the primary hub for Alaska Airlines, whose headquarters is located near the airport.

Climatology

Dry-summer subtropical ”Mediterranean" climate (Köppen climate classification Csb) - characterized by warm, dry summers and mild winters.

Runways

Designator Length Width Surface Rops
16C/34C 2873 46 CONC-F Yes/Yes
16R/34L 2873 46 CON Yes/Yes
16L/34R 3627 46 ASP Yes/Yes

Airport map

Aerial View

SKYbrary Partners:

Safety knowledge contributed by: